sensor_id;sensor_type;location;lat;lon;timestamp;P1;durP1;ratioP1;P2;durP2;ratioP2
13795;SDS011;40911;51.552;9.874;2023-01-09T00:08:46;2.63;;;2.42;;
13795;SDS011;40911;51.552;9.874;2023-01-09T00:11:08;2.80;;;2.10;;
13795;SDS011;40911;51.552;9.874;2023-01-09T00:13:30;2.30;;;2.10;;
13795;SDS011;40911;51.552;9.874;2023-01-09T00:15:51;3.25;;;2.30;;
13795;SDS011;40911;51.552;9.874;2023-01-09T00:18:13;2.60;;;2.40;;
13795;SDS011;40911;51.552;9.874;2023-01-09T00:20:34;2.45;;;2.25;;
13795;SDS011;40911;51.552;9.874;2023-01-09T00:25:19;2.67;;;2.30;;
13795;SDS011;40911;51.552;9.874;2023-01-09T00:27:41;2.35;;;2.25;;
13795;SDS011;40911;51.552;9.874;2023-01-09T00:30:03;3.97;;;2.85;;
13795;SDS011;40911;51.552;9.874;2023-01-09T00:32:26;2.70;;;2.50;;
13795;SDS011;40911;51.552;9.874;2023-01-09T00:34:49;3.83;;;2.30;;
13795;SDS011;40911;51.552;9.874;2023-01-09T00:37:10;3.17;;;2.42;;
13795;SDS011;40911;51.552;9.874;2023-01-09T00:39:32;2.60;;;2.50;;
13795;SDS011;40911;51.552;9.874;2023-01-09T00:41:55;2.72;;;2.50;;
13795;SDS011;40911;51.552;9.874;2023-01-09T00:44:18;3.20;;;2.47;;
13795;SDS011;40911;51.552;9.874;2023-01-09T00:46:44;2.70;;;2.50;;
13795;SDS011;40911;51.552;9.874;2023-01-09T00:49:10;2.70;;;2.50;;
13795;SDS011;40911;51.552;9.874;2023-01-09T00:51:33;2.72;;;2.50;;
13795;SDS011;40911;51.552;9.874;2023-01-09T00:58:40;2.80;;;2.55;;
13795;SDS011;40911;51.552;9.874;2023-01-09T01:01:03;2.78;;;2.58;;
13795;SDS011;40911;51.552;9.874;2023-01-09T01:05:46;2.80;;;2.60;;
13795;SDS011;40911;51.552;9.874;2023-01-09T01:08:25;2.85;;;2.65;;
13795;SDS011;40911;51.552;9.874;2023-01-09T01:10:47;2.80;;;2.60;;
13795;SDS011;40911;51.552;9.874;2023-01-09T01:13:08;2.80;;;2.60;;
13795;SDS011;40911;51.552;9.874;2023-01-09T01:17:53;2.85;;;2.65;;
13795;SDS011;40911;51.552;9.874;2023-01-09T01:22:38;3.00;;;2.80;;
13795;SDS011;40911;51.552;9.874;2023-01-09T01:25:01;3.25;;;2.88;;
13795;SDS011;40911;51.552;9.874;2023-01-09T01:27:23;3.40;;;3.17;;
13795;SDS011;40911;51.552;9.874;2023-01-09T01:29:44;3.55;;;3.25;;
13795;SDS011;40911;51.552;9.874;2023-01-09T01:34:29;3.20;;;2.97;;
13795;SDS011;40911;51.552;9.874;2023-01-09T01:36:50;3.33;;;3.10;;
13795;SDS011;40911;51.552;9.874;2023-01-09T01:39:12;3.28;;;3.08;;
13795;SDS011;40911;51.552;9.874;2023-01-09T01:41:33;3.80;;;3.40;;
13795;SDS011;40911;51.552;9.874;2023-01-09T01:43:56;3.60;;;3.30;;
13795;SDS011;40911;51.552;9.874;2023-01-09T01:46:18;3.35;;;3.00;;
13795;SDS011;40911;51.552;9.874;2023-01-09T01:48:42;3.42;;;3.13;;
13795;SDS011;40911;51.552;9.874;2023-01-09T01:51:04;3.70;;;3.40;;
13795;SDS011;40911;51.552;9.874;2023-01-09T01:53:29;4.97;;;3.58;;
13795;SDS011;40911;51.552;9.874;2023-01-09T01:55:57;3.78;;;3.47;;
13795;SDS011;40911;51.552;9.874;2023-01-09T01:58:25;4.00;;;3.63;;
13795;SDS011;40911;51.552;9.874;2023-01-09T02:00:48;4.10;;;3.55;;
13795;SDS011;40911;51.552;9.874;2023-01-09T02:03:09;4.35;;;3.95;;
13795;SDS011;40911;51.552;9.874;2023-01-09T02:05:35;5.00;;;4.10;;
13795;SDS011;40911;51.552;9.874;2023-01-09T02:07:59;4.93;;;3.90;;
13795;SDS011;40911;51.552;9.874;2023-01-09T02:10:20;4.90;;;4.00;;
13795;SDS011;40911;51.552;9.874;2023-01-09T02:12:43;6.38;;;4.13;;
13795;SDS011;40911;51.552;9.874;2023-01-09T02:15:06;4.68;;;4.18;;
13795;SDS011;40911;51.552;9.874;2023-01-09T02:20:39;6.53;;;4.80;;
13795;SDS011;40911;51.552;9.874;2023-01-09T02:23:21;6.30;;;4.70;;
13795;SDS011;40911;51.552;9.874;2023-01-09T02:26:07;5.22;;;4.72;;
13795;SDS011;40911;51.552;9.874;2023-01-09T02:28:50;5.20;;;4.70;;
13795;SDS011;40911;51.552;9.874;2023-01-09T02:31:26;6.25;;;4.90;;
13795;SDS011;40911;51.552;9.874;2023-01-09T02:33:53;5.57;;;4.70;;
13795;SDS011;40911;51.552;9.874;2023-01-09T02:36:24;7.10;;;5.68;;
13795;SDS011;40911;51.552;9.874;2023-01-09T02:38:53;5.80;;;5.18;;
13795;SDS011;40911;51.552;9.874;2023-01-09T02:41:29;5.97;;;5.22;;
13795;SDS011;40911;51.552;9.874;2023-01-09T02:44:15;5.28;;;4.78;;
13795;SDS011;40911;51.552;9.874;2023-01-09T02:46:39;5.93;;;5.32;;
13795;SDS011;40911;51.552;9.874;2023-01-09T02:49:02;6.03;;;5.43;;
13795;SDS011;40911;51.552;9.874;2023-01-09T02:51:26;6.85;;;5.30;;
13795;SDS011;40911;51.552;9.874;2023-01-09T02:54:09;5.95;;;5.35;;
13795;SDS011;40911;51.552;9.874;2023-01-09T02:56:44;8.68;;;5.20;;
13795;SDS011;40911;51.552;9.874;2023-01-09T02:59:23;6.07;;;5.32;;
13795;SDS011;40911;51.552;9.874;2023-01-09T03:02:00;7.60;;;5.28;;
13795;SDS011;40911;51.552;9.874;2023-01-09T03:04:33;6.15;;;5.10;;
13795;SDS011;40911;51.552;9.874;2023-01-09T03:07:06;5.57;;;4.85;;
13795;SDS011;40911;51.552;9.874;2023-01-09T03:09:33;5.32;;;4.82;;
13795;SDS011;40911;51.552;9.874;2023-01-09T03:11:59;5.72;;;5.22;;
13795;SDS011;40911;51.552;9.874;2023-01-09T03:14:24;6.47;;;5.00;;
13795;SDS011;40911;51.552;9.874;2023-01-09T03:16:47;4.97;;;4.53;;
13795;SDS011;40911;51.552;9.874;2023-01-09T03:19:15;4.85;;;4.45;;
13795;SDS011;40911;51.552;9.874;2023-01-09T03:21:40;4.93;;;4.53;;
13795;SDS011;40911;51.552;9.874;2023-01-09T03:24:03;5.95;;;4.68;;
13795;SDS011;40911;51.552;9.874;2023-01-09T03:26:25;7.60;;;4.60;;
13795;SDS011;40911;51.552;9.874;2023-01-09T03:28:48;5.03;;;4.53;;
13795;SDS011;40911;51.552;9.874;2023-01-09T03:31:10;5.10;;;4.63;;
13795;SDS011;40911;51.552;9.874;2023-01-09T03:33:31;4.65;;;4.20;;
13795;SDS011;40911;51.552;9.874;2023-01-09T03:35:54;4.55;;;4.15;;
13795;SDS011;40911;51.552;9.874;2023-01-09T03:38:16;4.53;;;4.13;;
13795;SDS011;40911;51.552;9.874;2023-01-09T03:40:39;4.60;;;3.92;;
13795;SDS011;40911;51.552;9.874;2023-01-09T03:43:02;4.35;;;3.90;;
13795;SDS011;40911;51.552;9.874;2023-01-09T03:45:24;4.35;;;3.95;;
13795;SDS011;40911;51.552;9.874;2023-01-09T03:47:45;4.43;;;4.03;;
13795;SDS011;40911;51.552;9.874;2023-01-09T03:50:07;4.75;;;4.25;;
13795;SDS011;40911;51.552;9.874;2023-01-09T03:52:31;5.03;;;3.95;;
13795;SDS011;40911;51.552;9.874;2023-01-09T03:54:53;6.40;;;4.32;;
13795;SDS011;40911;51.552;9.874;2023-01-09T03:59:36;4.30;;;3.90;;
13795;SDS011;40911;51.552;9.874;2023-01-09T04:01:58;4.68;;;4.28;;
13795;SDS011;40911;51.552;9.874;2023-01-09T04:04:20;4.47;;;4.03;;
13795;SDS011;40911;51.552;9.874;2023-01-09T04:06:41;4.88;;;4.38;;
13795;SDS011;40911;51.552;9.874;2023-01-09T04:09:04;4.82;;;4.43;;
13795;SDS011;40911;51.552;9.874;2023-01-09T04:11:26;4.65;;;4.10;;
13795;SDS011;40911;51.552;9.874;2023-01-09T04:13:48;4.47;;;4.07;;
13795;SDS011;40911;51.552;9.874;2023-01-09T04:16:09;4.60;;;4.20;;
13795;SDS011;40911;51.552;9.874;2023-01-09T04:18:31;4.85;;;4.45;;
13795;SDS011;40911;51.552;9.874;2023-01-09T04:20:52;4.85;;;4.43;;
13795;SDS011;40911;51.552;9.874;2023-01-09T04:23:14;5.10;;;4.65;;
13795;SDS011;40911;51.552;9.874;2023-01-09T04:25:37;5.25;;;4.57;;
13795;SDS011;40911;51.552;9.874;2023-01-09T04:27:59;4.65;;;4.20;;
13795;SDS011;40911;51.552;9.874;2023-01-09T04:30:20;4.25;;;3.80;;
13795;SDS011;40911;51.552;9.874;2023-01-09T04:32:42;4.65;;;4.20;;
13795;SDS011;40911;51.552;9.874;2023-01-09T04:35:04;5.40;;;3.38;;
13795;SDS011;40911;51.552;9.874;2023-01-09T04:37:26;3.80;;;3.40;;
13795;SDS011;40911;51.552;9.874;2023-01-09T04:39:48;3.30;;;3.10;;
13795;SDS011;40911;51.552;9.874;2023-01-09T04:42:12;2.30;;;2.20;;
13795;SDS011;40911;51.552;9.874;2023-01-09T04:44:33;2.30;;;2.20;;
13795;SDS011;40911;51.552;9.874;2023-01-09T04:46:56;2.30;;;2.20;;
13795;SDS011;40911;51.552;9.874;2023-01-09T04:49:18;2.15;;;2.05;;
13795;SDS011;40911;51.552;9.874;2023-01-09T04:51:40;2.28;;;2.17;;
13795;SDS011;40911;51.552;9.874;2023-01-09T04:54:02;2.40;;;2.25;;
13795;SDS011;40911;51.552;9.874;2023-01-09T04:56:24;2.50;;;2.30;;
13795;SDS011;40911;51.552;9.874;2023-01-09T04:58:47;2.50;;;2.40;;
13795;SDS011;40911;51.552;9.874;2023-01-09T05:01:08;2.22;;;2.10;;
13795;SDS011;40911;51.552;9.874;2023-01-09T05:03:30;2.20;;;2.10;;
13795;SDS011;40911;51.552;9.874;2023-01-09T05:05:51;2.42;;;2.33;;
13795;SDS011;40911;51.552;9.874;2023-01-09T05:08:13;2.25;;;2.13;;
13795;SDS011;40911;51.552;9.874;2023-01-09T05:10:35;2.42;;;2.30;;
13795;SDS011;40911;51.552;9.874;2023-01-09T05:12:56;2.20;;;2.10;;
13795;SDS011;40911;51.552;9.874;2023-01-09T05:15:19;2.10;;;2.00;;
13795;SDS011;40911;51.552;9.874;2023-01-09T05:17:41;2.10;;;2.00;;
13795;SDS011;40911;51.552;9.874;2023-01-09T05:20:03;2.00;;;1.90;;
13795;SDS011;40911;51.552;9.874;2023-01-09T05:22:25;2.03;;;1.90;;
13795;SDS011;40911;51.552;9.874;2023-01-09T05:24:47;2.10;;;2.00;;
13795;SDS011;40911;51.552;9.874;2023-01-09T05:27:08;1.98;;;1.88;;
13795;SDS011;40911;51.552;9.874;2023-01-09T05:29:30;1.95;;;1.85;;
13795;SDS011;40911;51.552;9.874;2023-01-09T05:31:53;1.95;;;1.85;;
13795;SDS011;40911;51.552;9.874;2023-01-09T05:34:14;1.80;;;1.70;;
13795;SDS011;40911;51.552;9.874;2023-01-09T05:36:36;1.75;;;1.75;;
13795;SDS011;40911;51.552;9.874;2023-01-09T05:41:21;1.70;;;1.70;;
13795;SDS011;40911;51.552;9.874;2023-01-09T05:43:43;1.80;;;1.70;;
13795;SDS011;40911;51.552;9.874;2023-01-09T05:46:04;1.55;;;1.55;;
13795;SDS011;40911;51.552;9.874;2023-01-09T05:48:27;1.70;;;1.70;;
13795;SDS011;40911;51.552;9.874;2023-01-09T05:50:49;1.60;;;1.60;;
13795;SDS011;40911;51.552;9.874;2023-01-09T05:53:10;1.70;;;1.60;;
13795;SDS011;40911;51.552;9.874;2023-01-09T05:55:32;1.88;;;1.80;;
13795;SDS011;40911;51.552;9.874;2023-01-09T06:00:16;1.80;;;1.80;;
13795;SDS011;40911;51.552;9.874;2023-01-09T06:02:38;1.75;;;1.70;;
13795;SDS011;40911;51.552;9.874;2023-01-09T06:05:01;1.70;;;1.70;;
13795;SDS011;40911;51.552;9.874;2023-01-09T06:07:23;1.60;;;1.60;;
13795;SDS011;40911;51.552;9.874;2023-01-09T06:09:45;1.80;;;1.80;;
13795;SDS011;40911;51.552;9.874;2023-01-09T06:12:06;1.90;;;1.80;;
13795;SDS011;40911;51.552;9.874;2023-01-09T06:14:28;1.70;;;1.70;;
13795;SDS011;40911;51.552;9.874;2023-01-09T06:16:50;2.00;;;1.90;;
13795;SDS011;40911;51.552;9.874;2023-01-09T06:19:11;1.80;;;1.70;;
